Time;durP1;ratioP1;P1;durP2;ratioP2;P2;SDS_P1;SDS_P2;PMS_P1;PMS_P2;Temp;Humidity;BMP_temperature;BMP_pressure;BME280_temperature;BME280_humidity;BME280_pressure;Samples;Min_cycle;Max_cycle;Signal;HPM_P1;HPM_P2
2022/01/23 00:01:14;;;;;;;5.13;3.28;;;;;;;-4.69;66.30;96617.19;5094545;28;20024;-63
2022/01/23 00:03:45;;;;;;;4.97;3.25;;;;;;;-4.61;66.07;96616.53;5094522;28;20062;-63
2022/01/23 00:06:10;;;;;;;9.65;3.65;;;;;;;-4.56;66.00;96622.59;5094496;28;20111;-63
2022/01/23 00:08:36;;;;;;;5.72;3.15;;;;;;;-4.54;65.32;96626.06;5094221;28;20107;-61
2022/01/23 00:11:02;;;;;;;4.20;3.20;;;;;;;-4.57;65.09;96625.97;5094376;28;20027;-63
2022/01/23 00:13:35;;;;;;;5.40;3.45;;;;;;;-4.57;64.32;96626.81;5094322;28;20431;-61
2022/01/23 00:18:44;;;;;;;6.00;3.83;;;;;;;-4.63;62.63;96631.81;5093896;28;20028;-63
2022/01/23 00:21:10;;;;;;;7.05;3.35;;;;;;;-4.71;61.31;96629.06;5094127;28;20398;-63
2022/01/23 00:31:34;;;;;;;4.40;2.92;;;;;;;-4.65;60.13;96636.00;5093531;28;20047;-60
2022/01/23 00:34:01;;;;;;;5.57;2.50;;;;;;;-4.65;59.81;96638.56;5092314;28;20024;-63
2022/01/23 00:36:28;;;;;;;5.68;3.08;;;;;;;-4.51;59.36;96641.44;5093881;28;20449;-61
2022/01/23 00:38:55;;;;;;;5.97;3.10;;;;;;;-4.51;59.81;96638.03;5093699;28;20066;-61
2022/01/23 00:41:21;;;;;;;6.97;3.45;;;;;;;-4.52;59.81;96643.97;5093846;28;20375;-61
2022/01/23 00:43:48;;;;;;;4.43;2.95;;;;;;;-4.52;59.56;96636.31;5093732;28;20146;-61
2022/01/23 00:51:29;;;;;;;5.43;3.05;;;;;;;-4.54;58.39;96643.94;5093747;28;20028;-61
2022/01/23 00:53:59;;;;;;;6.28;3.17;;;;;;;-4.51;57.88;96646.56;5093765;28;20020;-61
2022/01/23 00:56:25;;;;;;;3.97;2.85;;;;;;;-4.50;58.07;96653.38;5093618;28;20032;-61
2022/01/23 00:58:51;;;;;;;4.63;2.92;;;;;;;-4.52;57.63;96646.53;5093622;28;20028;-61
2022/01/23 01:01:18;;;;;;;6.00;3.42;;;;;;;-4.57;57.08;96654.06;5093439;28;20068;-61
2022/01/23 01:03:44;;;;;;;6.88;3.88;;;;;;;-4.52;57.96;96647.38;5093543;28;20024;-63
2022/01/23 01:06:10;;;;;;;7.10;3.10;;;;;;;-4.52;57.87;96649.91;5093353;28;20027;-63
2022/01/23 01:08:36;;;;;;;7.35;3.10;;;;;;;-4.52;57.50;96649.06;5093390;28;20027;-61
2022/01/23 01:13:56;;;;;;;5.70;3.22;;;;;;;-4.43;57.61;96651.81;5093399;28;20024;-63
2022/01/23 01:35:27;;;;;;;5.65;3.17;;;;;;;-4.52;57.98;96660.13;5093326;28;20057;-61
2022/01/23 01:37:53;;;;;;;4.30;3.05;;;;;;;-4.58;57.91;96644.66;5093031;28;20366;-61
2022/01/23 01:40:20;;;;;;;7.38;3.33;;;;;;;-4.59;57.91;96651.47;5092911;28;20161;-61
2022/01/23 01:42:46;;;;;;;5.47;3.22;;;;;;;-4.61;57.82;96657.38;5093032;28;20394;-60
2022/01/23 01:45:13;;;;;;;5.22;3.67;;;;;;;-4.69;57.71;96655.47;5096893;28;20032;-61
2022/01/23 01:47:47;;;;;;;6.07;2.83;;;;;;;-4.64;57.78;96653.03;5097124;28;20081;-61
2022/01/23 01:50:12;;;;;;;6.13;3.60;;;;;;;-4.65;58.04;96655.56;5097031;28;20086;-60
2022/01/23 01:52:38;;;;;;;4.15;2.70;;;;;;;-4.82;57.75;96656.00;5097153;28;20047;-60
2022/01/23 01:55:07;;;;;;;7.65;3.38;;;;;;;-4.82;57.92;96659.44;5097055;28;20073;-62
2022/01/23 01:57:39;;;;;;;5.78;3.22;;;;;;;-4.77;57.82;96666.34;5096843;28;20062;-62
2022/01/23 02:00:35;;;;;;;5.97;3.50;;;;;;;-4.87;57.91;96671.25;5096812;28;20154;-63
2022/01/23 02:08:27;;;;;;;4.10;3.03;;;;;;;-4.93;57.01;96665.97;5096976;28;20165;-63
2022/01/23 02:11:11;;;;;;;7.25;3.72;;;;;;;-4.94;57.44;96661.69;5096582;28;20024;-62
2022/01/23 02:13:47;;;;;;;4.43;2.88;;;;;;;-5.01;57.27;96668.34;5096667;28;20035;-63
2022/01/23 02:54:38;;;;;;;5.15;3.22;;;;;;;-5.16;56.60;96688.34;5095808;28;19912;-60
2022/01/23 02:56:51;;;;;;;5.18;3.13;;;;;;;-5.14;56.22;96689.25;5094597;28;20119;-60
2022/01/23 02:59:23;;;;;;;5.88;3.30;;;;;;;-5.12;56.57;96688.47;5095779;28;20461;-61
2022/01/23 03:04:26;;;;;;;6.38;3.33;;;;;;;-5.09;56.84;96692.81;5095618;28;20020;-61
2022/01/23 03:07:08;;;;;;;6.32;3.35;;;;;;;-5.13;56.76;96681.63;5095699;28;20439;-61
2022/01/23 03:12:13;;;;;;;10.00;3.03;;;;;;;-5.20;56.69;96690.81;5095491;28;20025;-63
2022/01/23 03:14:52;;;;;;;5.03;2.97;;;;;;;-5.18;56.65;96684.91;5095418;28;20077;-61
2022/01/23 03:28:37;;;;;;;5.72;2.97;;;;;;;-5.31;56.64;96692.22;5095315;28;20074;-61
2022/01/23 03:33:29;;;;;;;5.78;2.53;;;;;;;-5.26;56.16;96700.88;5095093;28;20051;-61
2022/01/23 03:35:55;;;;;;;5.97;2.40;;;;;;;-5.35;56.50;96695.50;5095060;28;20518;-61
2022/01/23 03:38:20;;;;;;;5.45;2.65;;;;;;;-5.41;56.67;96706.41;5094952;28;20112;-60
2022/01/23 03:40:46;;;;;;;9.52;5.43;;;;;;;-5.41;56.98;96714.06;5094907;28;20032;-61
2022/01/23 03:43:14;;;;;;;14.73;7.10;;;;;;;-5.46;56.80;96713.94;5094952;28;20031;-60
2022/01/23 03:46:45;;;;;;;4.07;2.67;;;;;;;-5.51;56.92;96724.84;5094760;28;20020;-60
2022/01/23 03:50:57;;;;;;;4.93;2.75;;;;;;;-5.47;57.47;96742.81;5094695;28;20111;-61
2022/01/23 03:53:23;;;;;;;5.43;2.70;;;;;;;-5.49;57.45;96741.03;5094768;28;20067;-61
2022/01/23 03:55:50;;;;;;;4.38;2.70;;;;;;;-5.48;57.60;96753.81;5094587;28;20020;-61
2022/01/23 03:58:16;;;;;;;3.22;2.45;;;;;;;-5.40;57.84;96760.81;5094493;28;20428;-61
2022/01/23 04:00:42;;;;;;;4.28;2.67;;;;;;;-5.45;57.44;96761.56;5094634;28;20032;-62
2022/01/23 04:03:07;;;;;;;4.50;2.63;;;;;;;-5.32;57.11;96757.66;5094552;28;20020;-61
2022/01/23 04:05:33;;;;;;;5.38;3.00;;;;;;;-5.28;57.16;96757.75;5094513;28;20028;-60
2022/01/23 04:07:58;;;;;;;6.78;3.17;;;;;;;-5.37;57.43;96750.72;5094333;28;20063;-62
2022/01/23 04:10:24;;;;;;;4.05;2.47;;;;;;;-5.28;57.08;96752.66;5094395;28;20080;-62
2022/01/23 04:12:57;;;;;;;6.90;2.95;;;;;;;-5.15;57.31;96744.50;5094261;28;20032;-61
2022/01/23 04:20:39;;;;;;;6.45;2.78;;;;;;;-5.17;57.63;96718.13;5094012;28;20451;-61
2022/01/23 04:34:18;;;;;;;10.25;4.25;;;;;;;-5.22;57.47;96732.41;5094091;28;20090;-61
2022/01/23 05:04:19;;;;;;;8.10;4.03;;;;;;;-5.75;59.05;96764.94;5093392;28;20024;-61
2022/01/23 05:06:49;;;;;;;3.70;2.80;;;;;;;-5.73;59.53;96768.41;5093412;28;20032;-61
2022/01/23 05:09:15;;;;;;;7.03;3.17;;;;;;;-5.78;59.61;96776.75;5092096;28;20487;-61
2022/01/23 05:11:51;;;;;;;5.22;3.75;;;;;;;-5.80;60.11;96788.56;5093378;28;20103;-61
2022/01/23 05:14:27;;;;;;;7.03;3.80;;;;;;;-5.73;59.79;96786.25;5093448;28;20020;-61
2022/01/23 05:16:53;;;;;;;7.47;3.35;;;;;;;-5.64;59.35;96793.31;5093210;28;20055;-60
2022/01/23 05:19:19;;;;;;;5.55;3.25;;;;;;;-5.67;59.97;96800.88;5092479;28;20097;-61
2022/01/23 05:24:15;;;;;;;8.07;4.22;;;;;;;-5.69;60.09;96786.34;5093253;28;20035;-61
2022/01/23 05:26:45;;;;;;;13.10;3.97;;;;;;;-5.69;60.09;96797.41;5093273;28;20098;-60
2022/01/23 05:29:13;;;;;;;6.32;3.60;;;;;;;-5.72;59.80;96790.53;5093269;28;20042;-60
2022/01/23 05:31:39;;;;;;;10.23;4.50;;;;;;;-5.82;59.72;96801.25;5093183;28;20032;-61
2022/01/23 05:34:05;;;;;;;9.60;4.43;;;;;;;-5.77;59.97;96792.09;5091936;28;20027;-61
2022/01/23 05:36:31;;;;;;;7.55;3.95;;;;;;;-5.81;60.29;96776.66;5093112;28;20077;-61
2022/01/23 05:38:57;;;;;;;8.32;3.78;;;;;;;-5.80;60.48;96786.91;5092970;28;20020;-62
2022/01/23 05:41:23;;;;;;;8.73;4.18;;;;;;;-5.76;60.38;96790.38;5092959;28;20058;-62
2022/01/23 05:43:49;;;;;;;18.80;7.72;;;;;;;-5.87;60.17;96785.84;5093006;28;20044;-61
2022/01/23 05:46:16;;;;;;;12.25;7.80;;;;;;;-5.87;60.14;96792.63;5093028;28;20028;-62
2022/01/23 05:48:42;;;;;;;13.68;7.25;;;;;;;-6.04;60.16;96800.66;5093026;28;20027;-61
2022/01/23 05:51:12;;;;;;;12.15;5.72;;;;;;;-6.16;60.96;96792.59;5093035;28;20085;-62
2022/01/23 05:53:38;;;;;;;8.45;5.53;;;;;;;-6.31;60.74;96798.06;5092935;28;20020;-62
2022/01/23 05:56:04;;;;;;;8.60;5.57;;;;;;;-6.33;60.76;96813.28;5092861;28;20020;-61
2022/01/23 05:58:30;;;;;;;15.00;7.03;;;;;;;-6.30;60.90;96807.47;5092783;28;20020;-61
2022/01/23 06:00:55;;;;;;;11.20;7.25;;;;;;;-6.28;61.28;96816.00;5092822;28;20020;-62
2022/01/23 06:03:21;;;;;;;7.25;4.43;;;;;;;-6.40;61.57;96813.91;5092789;28;20093;-61
2022/01/23 06:05:47;;;;;;;6.45;3.72;;;;;;;-6.42;62.05;96818.09;5092708;28;20489;-62
2022/01/23 06:08:12;;;;;;;8.05;4.38;;;;;;;-6.41;61.85;96809.66;5092854;28;20020;-62
2022/01/23 06:10:53;;;;;;;6.20;3.88;;;;;;;-6.43;61.71;96817.22;5092872;28;20027;-62
2022/01/23 06:13:20;;;;;;;7.38;5.30;;;;;;;-6.43;61.54;96821.44;5092846;28;20111;-61
2022/01/23 06:15:45;;;;;;;24.00;11.60;;;;;;;-6.51;61.85;96814.44;5092687;28;20047;-62
2022/01/23 06:18:11;;;;;;;9.68;4.75;;;;;;;-6.58;62.88;96819.25;5092792;28;20020;-61
2022/01/23 06:20:36;;;;;;;9.27;5.15;;;;;;;-6.09;62.52;96820.00;5092483;28;20079;-62
2022/01/23 06:23:02;;;;;;;10.57;5.80;;;;;;;-4.88;60.12;96832.03;5092664;28;20028;-62
2022/01/23 06:25:33;;;;;;;13.50;5.85;;;;;;;-3.31;55.67;96829.84;5092622;28;20024;-63
2022/01/23 06:27:59;;;;;;;6.05;3.38;;;;;;;-1.84;52.21;96827.38;5092900;28;20028;-62
2022/01/23 06:30:25;;;;;;;8.43;3.30;;;;;;;-0.31;48.70;96824.13;5093362;28;20028;-62
2022/01/23 06:32:51;;;;;;;4.35;2.67;;;;;;;0.85;43.84;96818.13;5096367;28;20474;-63
2022/01/23 06:35:16;;;;;;;5.05;2.58;;;;;;;0.55;44.09;96827.41;5096254;28;20023;-62
2022/01/23 06:37:42;;;;;;;5.20;2.40;;;;;;;0.83;43.98;96823.28;5096295;28;20355;-61
2022/01/23 06:40:08;;;;;;;5.22;2.38;;;;;;;1.74;41.65;96814.13;5096028;28;20035;-63
2022/01/23 06:42:34;;;;;;;4.80;2.85;;;;;;;2.81;40.30;96814.06;5095939;28;20431;-61
2022/01/23 06:45:00;;;;;;;5.10;2.50;;;;;;;3.72;37.73;96811.94;5096072;28;20132;-62
2022/01/23 06:47:26;;;;;;;4.32;2.60;;;;;;;3.90;36.12;96810.94;5096073;28;20025;-64
2022/01/23 06:49:52;;;;;;;4.78;2.53;;;;;;;4.04;36.89;96810.88;5096013;28;20016;-61
2022/01/23 06:52:18;;;;;;;3.88;2.40;;;;;;;4.40;35.49;96818.34;5095866;28;20462;-64
2022/01/23 06:54:44;;;;;;;4.10;2.60;;;;;;;3.71;36.08;96816.25;5095882;28;20023;-62
2022/01/23 06:57:09;;;;;;;6.03;2.83;;;;;;;3.47;36.55;96812.94;5095716;28;20016;-64
2022/01/23 06:59:35;;;;;;;6.75;3.53;;;;;;;3.61;35.97;96814.59;5095755;28;20028;-61
2022/01/23 07:02:03;;;;;;;4.20;2.47;;;;;;;3.40;36.21;96813.81;5095674;28;20386;-62
2022/01/23 07:04:29;;;;;;;4.07;2.60;;;;;;;3.07;36.86;96832.06;5095667;28;20036;-62
2022/01/23 07:06:55;;;;;;;4.57;2.55;;;;;;;2.80;36.82;96835.59;5095540;28;20398;-62
2022/01/23 07:09:21;;;;;;;4.13;2.58;;;;;;;2.48;37.57;96840.81;5095324;28;20051;-64
2022/01/23 07:11:48;;;;;;;2.78;2.20;;;;;;;2.38;38.16;96839.94;5095476;28;20032;-63
2022/01/23 07:14:14;;;;;;;5.63;2.58;;;;;;;2.29;37.97;96828.78;5095566;28;20107;-63
2022/01/23 07:16:39;;;;;;;3.33;2.05;;;;;;;2.50;38.06;96826.16;5095415;28;20127;-63
2022/01/23 07:19:05;;;;;;;3.90;2.85;;;;;;;2.48;37.74;96829.63;5095076;28;20054;-63
2022/01/23 07:21:31;;;;;;;4.82;2.60;;;;;;;2.82;36.84;96818.34;5095430;28;20474;-63
2022/01/23 07:23:57;;;;;;;4.07;2.70;;;;;;;3.08;37.09;96827.75;5095534;28;20023;-63
2022/01/23 07:26:26;;;;;;;4.05;2.67;;;;;;;2.62;37.03;96827.03;5095232;28;20024;-61
2022/01/23 07:28:54;;;;;;;5.18;2.30;;;;;;;2.17;38.08;96825.34;5095211;28;20470;-64
2022/01/23 07:34:06;;;;;;;3.67;2.50;;;;;;;0.96;40.34;96828.50;5095141;28;20062;-63
2022/01/23 07:36:33;;;;;;;4.95;3.25;;;;;;;0.43;41.52;96828.19;5095199;28;20389;-63
2022/01/23 07:38:59;;;;;;;3.83;2.33;;;;;;;-0.27;43.47;96828.50;5094952;28;20103;-62
2022/01/23 07:41:25;;;;;;;4.20;2.90;;;;;;;-0.53;44.30;96829.94;5094579;28;20048;-63
2022/01/23 07:43:57;;;;;;;4.57;2.70;;;;;;;-0.72;44.33;96834.00;5094970;28;20411;-62
2022/01/23 07:46:24;;;;;;;5.78;2.70;;;;;;;-0.68;45.09;96829.78;5094827;28;20097;-62
2022/01/23 07:48:49;;;;;;;3.13;2.53;;;;;;;-0.54;45.15;96835.91;5094928;28;20069;-63
2022/01/23 07:51:15;;;;;;;5.13;2.90;;;;;;;-0.42;45.13;96834.34;5094829;28;20020;-63
2022/01/23 07:53:41;;;;;;;5.30;3.40;;;;;;;-0.45;45.10;96829.16;5094584;28;20509;-63
2022/01/23 07:56:07;;;;;;;4.68;3.20;;;;;;;-0.45;45.31;96830.00;5094534;28;20032;-62
2022/01/23 07:58:33;;;;;;;9.18;4.38;;;;;;;-0.61;46.30;96834.13;5094489;28;20081;-62
2022/01/23 08:00:59;;;;;;;5.47;3.25;;;;;;;-0.90;46.79;96830.38;5094468;28;20028;-63
2022/01/23 08:03:24;;;;;;;5.20;3.33;;;;;;;-0.97;47.43;96825.16;5094508;28;20024;-62
2022/01/23 08:05:50;;;;;;;6.47;4.32;;;;;;;-0.59;47.68;96827.31;5093337;28;20039;-62
2022/01/23 08:08:16;;;;;;;7.93;3.25;;;;;;;0.40;45.92;96835.88;5094423;28;20088;-63
2022/01/23 08:10:41;;;;;;;6.47;2.85;;;;;;;0.85;43.67;96836.16;5094348;28;20028;-63
2022/01/23 08:13:08;;;;;;;5.15;3.13;;;;;;;1.04;42.25;96842.28;5094289;28;20470;-62
2022/01/23 08:15:34;;;;;;;5.57;3.28;;;;;;;0.82;43.62;96838.72;5094374;28;20044;-62
2022/01/23 08:18:04;;;;;;;3.22;2.75;;;;;;;0.62;43.37;96852.34;5094166;28;20379;-61
2022/01/23 08:20:32;;;;;;;5.97;2.78;;;;;;;0.31;43.82;96841.81;5094053;28;20044;-63
2022/01/23 08:23:00;;;;;;;4.82;3.00;;;;;;;0.10;43.94;96844.25;5094090;28;20024;-63
2022/01/23 08:25:26;;;;;;;5.00;2.67;;;;;;;-0.09;44.61;96852.66;5094241;28;20030;-62
2022/01/23 08:27:56;;;;;;;4.78;2.97;;;;;;;-0.51;46.29;96843.66;5094013;28;20028;-62
2022/01/23 08:30:22;;;;;;;11.20;7.35;;;;;;;-0.54;46.86;96843.63;5093877;28;20024;-63
2022/01/23 08:32:48;;;;;;;8.95;4.05;;;;;;;-0.56;46.93;96844.47;5093858;28;20120;-62
2022/01/23 08:35:15;;;;;;;8.95;4.40;;;;;;;-0.48;46.52;96839.41;5093852;28;20119;-63
2022/01/23 08:37:41;;;;;;;21.70;11.73;;;;;;;-0.63;47.41;96840.97;5093862;28;20093;-63
2022/01/23 08:40:45;;;;;;;13.60;8.38;;;;;;;-0.79;48.09;96845.06;5093813;28;20466;-62
2022/01/23 08:43:13;;;;;;;11.05;7.38;;;;;;;-0.90;49.13;96848.34;5093772;28;20028;-63
2022/01/23 08:45:40;;;;;;;10.77;6.15;;;;;;;-0.99;49.76;96848.25;5093757;28;20050;-61
2022/01/23 08:48:10;;;;;;;14.45;8.55;;;;;;;-1.17;49.23;96852.28;5093762;28;20038;-63
2022/01/23 08:50:36;;;;;;;9.23;5.70;;;;;;;-1.26;49.60;96859.88;5093534;28;20024;-63
2022/01/23 08:53:05;;;;;;;6.63;4.35;;;;;;;-1.20;49.94;96856.53;5093122;28;20145;-61
2022/01/23 08:55:33;;;;;;;6.55;3.72;;;;;;;-1.33;49.93;96853.78;5093583;28;20031;-62
2022/01/23 08:57:59;;;;;;;7.80;4.32;;;;;;;-1.43;49.12;96847.69;5093591;28;20069;-63
2022/01/23 09:00:25;;;;;;;6.57;5.05;;;;;;;-1.61;50.44;96849.94;5093423;28;20028;-62
2022/01/23 09:02:51;;;;;;;3.55;2.90;;;;;;;-1.55;51.19;96847.47;5093587;28;20025;-62
2022/01/23 09:05:18;;;;;;;3.92;2.05;;;;;;;-1.64;50.71;96850.78;5093426;28;20036;-63
2022/01/23 09:07:44;;;;;;;3.03;2.30;;;;;;;-1.51;49.56;96843.28;5093376;28;20035;-63
2022/01/23 09:10:10;;;;;;;5.30;2.40;;;;;;;-1.42;49.88;96843.38;5093411;28;20078;-63
2022/01/23 09:15:06;;;;;;;5.38;3.17;;;;;;;-1.29;50.89;96847.84;5093301;28;20446;-63
2022/01/23 09:17:32;;;;;;;10.93;6.93;;;;;;;-1.41;51.17;96840.00;5093276;28;20032;-62
2022/01/23 09:19:58;;;;;;;4.57;3.13;;;;;;;-1.38;51.01;96847.75;5092923;28;20079;-63
2022/01/23 09:22:28;;;;;;;5.45;3.50;;;;;;;-1.46;51.77;96839.94;5093165;28;20012;-63
2022/01/23 09:24:55;;;;;;;8.45;4.32;;;;;;;-1.51;52.39;96838.97;5093069;28;20040;-62
2022/01/23 09:27:21;;;;;;;12.18;5.40;;;;;;;-1.47;51.95;96832.19;5093173;28;20093;-63
2022/01/23 09:29:51;;;;;;;12.02;6.43;;;;;;;-1.41;51.58;96828.00;5093155;28;20017;-63
2022/01/23 09:32:19;;;;;;;8.15;4.22;;;;;;;-1.39;51.71;96825.47;5093118;28;20038;-63
2022/01/23 09:34:46;;;;;;;6.20;3.30;;;;;;;-1.31;52.23;96830.72;5093011;28;20062;-63
2022/01/23 09:37:14;;;;;;;10.52;5.57;;;;;;;-1.24;51.60;96822.25;5093011;28;20047;-63
2022/01/23 09:39:49;;;;;;;6.40;4.30;;;;;;;-1.24;51.38;96814.53;5093080;28;20035;-62
2022/01/23 09:42:21;;;;;;;6.15;3.50;;;;;;;-1.24;50.70;96816.25;5093097;28;20028;-63
2022/01/23 09:44:48;;;;;;;10.18;5.55;;;;;;;-1.29;51.07;96808.50;5092918;28;20074;-63
2022/01/23 09:47:16;;;;;;;9.52;4.45;;;;;;;-1.21;51.05;96806.03;5092935;28;20051;-62
2022/01/23 09:49:43;;;;;;;13.43;6.45;;;;;;;-1.16;51.57;96805.25;5093118;28;20024;-61
2022/01/23 09:52:11;;;;;;;9.30;4.35;;;;;;;-1.18;51.27;96801.78;5092968;28;20024;-62
2022/01/23 09:54:40;;;;;;;5.95;4.47;;;;;;;-1.25;51.31;96801.69;5092817;28;20047;-62
2022/01/23 09:57:11;;;;;;;6.53;3.78;;;;;;;-1.27;51.21;96794.81;5092700;28;20027;-62
2022/01/23 09:59:42;;;;;;;3.95;2.78;;;;;;;-1.22;50.17;96800.03;5092783;28;20051;-62
2022/01/23 10:02:09;;;;;;;4.38;2.90;;;;;;;-1.23;50.83;96797.44;5092861;28;20042;-61
2022/01/23 10:04:35;;;;;;;14.65;4.28;;;;;;;-1.13;51.52;96794.16;5093976;28;20401;-63
2022/01/23 10:07:05;;;;;;;13.27;5.97;;;;;;;-1.16;51.14;96801.81;5096916;28;20051;-61
2022/01/23 10:09:32;;;;;;;11.20;4.40;;;;;;;-1.16;51.42;96791.53;5096728;28;20028;-63
2022/01/23 10:11:58;;;;;;;10.35;5.10;;;;;;;-1.00;51.24;96794.31;5096569;28;20179;-64
2022/01/23 10:14:27;;;;;;;8.93;5.50;;;;;;;-1.03;51.72;96790.84;5096668;28;20020;-63
2022/01/23 10:16:52;;;;;;;12.88;7.25;;;;;;;-1.02;50.88;96784.84;5096558;28;20035;-63
2022/01/23 10:19:19;;;;;;;14.15;7.20;;;;;;;-0.84;51.61;96779.94;5096291;28;20405;-62
2022/01/23 10:21:47;;;;;;;9.60;5.38;;;;;;;-0.70;49.69;96774.91;5096491;28;20107;-63
2022/01/23 10:24:15;;;;;;;8.63;3.92;;;;;;;-0.48;48.17;96775.16;5096318;28;20063;-63
2022/01/23 10:26:46;;;;;;;8.60;4.70;;;;;;;-0.32;47.89;96774.44;5096417;28;20084;-63
2022/01/23 10:29:25;;;;;;;7.43;3.78;;;;;;;-0.24;47.67;96773.66;5096415;28;20059;-62
2022/01/23 10:32:38;;;;;;;5.90;3.45;;;;;;;-0.26;45.78;96771.94;5096429;28;20484;-63
2022/01/23 10:35:05;;;;;;;4.82;4.32;;;;;;;-0.50;47.45;96775.13;5092631;28;20043;-62
2022/01/23 10:37:35;;;;;;;5.72;3.78;;;;;;;-0.60;47.22;96768.19;5096055;28;20029;-64
2022/01/23 10:40:08;;;;;;;3.42;2.10;;;;;;;-0.64;45.03;96767.28;5096246;28;20024;-63
2022/01/23 10:48:13;;;;;;;6.95;3.28;;;;;;;-0.75;46.22;96781.72;5096412;28;20055;-63
2022/01/23 10:50:38;;;;;;;5.97;3.45;;;;;;;-0.88;47.19;96773.03;5095887;28;20085;-62
2022/01/23 10:53:05;;;;;;;5.50;3.20;;;;;;;-0.94;45.46;96771.22;5095987;28;20426;-63
2022/01/23 10:55:33;;;;;;;6.30;3.97;;;;;;;-1.05;44.99;96777.09;5095917;28;20024;-63
2022/01/23 10:58:02;;;;;;;5.20;2.83;;;;;;;-1.17;45.86;96766.72;5095800;28;20020;-63
2022/01/23 11:00:40;;;;;;;5.28;3.53;;;;;;;-1.25;48.39;96771.75;5095701;28;20059;-62
2022/01/23 11:03:23;;;;;;;8.68;4.78;;;;;;;-1.28;51.89;96772.56;5095788;28;20096;-63
2022/01/23 11:05:52;;;;;;;6.45;4.25;;;;;;;-1.42;54.27;96768.94;5095612;28;20550;-62
2022/01/23 11:08:21;;;;;;;5.60;4.32;;;;;;;-1.42;55.52;96771.50;5095544;28;20020;-62
2022/01/23 11:10:54;;;;;;;8.27;5.78;;;;;;;-1.41;56.45;96760.44;5095597;28;20417;-63
2022/01/23 11:19:17;;;;;;;7.10;3.47;;;;;;;-1.63;59.84;96757.56;5095142;28;20059;-63
2022/01/23 11:21:44;;;;;;;5.70;3.47;;;;;;;-1.67;60.34;96748.09;5095310;28;20024;-63
2022/01/23 11:24:12;;;;;;;6.40;3.80;;;;;;;-1.57;60.18;96757.63;5095353;28;20112;-62
2022/01/23 11:26:40;;;;;;;5.43;3.75;;;;;;;-1.42;60.77;96753.53;5095319;28;20115;-63
2022/01/23 11:29:17;;;;;;;4.43;3.30;;;;;;;-1.35;59.91;96744.25;5095228;28;20043;-62
2022/01/23 11:31:44;;;;;;;5.05;3.40;;;;;;;-1.23;60.11;96739.25;5095209;28;20517;-63
2022/01/23 11:34:13;;;;;;;5.43;3.50;;;;;;;-1.03;58.62;96734.34;5095013;28;20123;-63
2022/01/23 11:36:42;;;;;;;4.43;3.40;;;;;;;-1.11;58.39;96730.84;5094981;28;20035;-63
2022/01/23 11:39:14;;;;;;;8.00;4.00;;;;;;;-1.10;59.30;96724.84;5094714;28;20047;-63
2022/01/23 11:59:12;;;;;;;5.00;3.33;;;;;;;-1.16;48.88;96724.78;5089683;28;20536;-62
2022/01/23 12:01:45;;;;;;;3.15;2.40;;;;;;;-1.09;46.05;96733.44;5094631;28;20116;-62
2022/01/23 12:04:20;;;;;;;4.20;2.75;;;;;;;-1.00;45.30;96730.94;5094662;28;20417;-63
2022/01/23 12:07:21;;;;;;;5.47;2.85;;;;;;;-1.21;44.77;96734.16;5094541;28;20550;-63
2022/01/23 12:10:50;;;;;;;3.78;2.78;;;;;;;-1.21;45.63;96724.72;5052180;28;20112;-62
2022/01/23 12:13:33;;;;;;;4.32;3.15;;;;;;;-1.22;44.78;96730.72;5094053;28;20042;-63
2022/01/23 12:18:44;;;;;;;5.63;4.00;;;;;;;-1.47;46.27;96721.84;5094357;28;20046;-63
2022/01/23 12:21:31;;;;;;;8.07;3.55;;;;;;;-1.54;46.14;96732.03;5094304;28;20470;-63
2022/01/23 12:24:02;;;;;;;5.88;3.47;;;;;;;-1.45;46.89;96723.56;5093928;28;20036;-63
2022/01/23 12:26:28;;;;;;;6.78;3.85;;;;;;;-1.37;47.50;96733.06;5094139;28;20021;-62
2022/01/23 12:28:54;;;;;;;4.25;3.25;;;;;;;-1.31;47.52;96726.31;5093020;28;20024;-62
2022/01/23 12:31:23;;;;;;;5.15;3.53;;;;;;;-1.27;46.56;96725.50;5093992;28;20020;-62
2022/01/23 12:33:56;;;;;;;4.38;3.22;;;;;;;-1.21;47.03;96723.88;5093917;28;20473;-62
2022/01/23 12:36:31;;;;;;;4.82;3.35;;;;;;;-1.14;45.62;96733.38;5093941;28;20036;-63
2022/01/23 12:39:09;;;;;;;6.40;4.05;;;;;;;-1.23;45.17;96728.13;5093814;28;20024;-63
2022/01/23 12:41:59;;;;;;;7.07;4.35;;;;;;;-1.30;45.68;96733.19;5093814;28;20427;-63
2022/01/23 12:44:28;;;;;;;7.05;4.15;;;;;;;-1.42;45.67;96735.56;5093931;28;20474;-62
2022/01/23 12:47:06;;;;;;;7.07;3.53;;;;;;;-1.44;46.17;96740.69;5093615;28;20508;-62
2022/01/23 12:49:38;;;;;;;5.30;3.67;;;;;;;-1.40;46.28;96741.59;5093794;28;20024;-63
2022/01/23 12:52:09;;;;;;;7.50;3.55;;;;;;;-1.43;46.69;96747.56;5093557;28;20024;-62
2022/01/23 12:54:50;;;;;;;3.88;3.13;;;;;;;-1.48;46.23;96743.22;5093563;28;20027;-62
2022/01/23 12:57:19;;;;;;;8.23;3.50;;;;;;;-1.56;46.47;96738.00;5092258;28;20082;-63
2022/01/23 12:59:57;;;;;;;11.25;5.78;;;;;;;-1.55;47.43;96744.84;5093334;28;20428;-62
2022/01/23 13:02:27;;;;;;;8.32;3.80;;;;;;;-1.48;46.35;96743.22;5093519;28;20390;-62
2022/01/23 13:04:57;;;;;;;6.90;4.35;;;;;;;-1.55;46.72;96734.56;5093361;28;20053;-63
2022/01/23 13:08:18;;;;;;;4.47;2.50;;;;;;;-1.40;46.15;96746.75;5093361;28;20028;-62
2022/01/23 13:15:28;;;;;;;3.50;2.95;;;;;;;-1.67;46.88;96735.25;5093338;28;20389;-62
2022/01/23 13:18:11;;;;;;;6.22;3.30;;;;;;;-1.75;46.97;96753.13;5093156;28;20470;-62
2022/01/23 13:32:16;;;;;;;4.80;3.40;;;;;;;-1.93;47.02;96748.56;5093493;28;20539;-62
2022/01/23 13:34:50;;;;;;;4.10;2.83;;;;;;;-1.96;46.56;96754.53;5093178;28;20118;-63
2022/01/23 13:37:24;;;;;;;4.82;2.80;;;;;;;-1.97;46.30;96750.25;5092884;28;20039;-62
2022/01/23 13:40:00;;;;;;;6.15;3.13;;;;;;;-1.95;47.03;96746.03;5094668;28;20055;-62
2022/01/23 13:51:29;;;;;;;3.60;2.50;;;;;;;-2.04;47.97;96754.41;5097248;28;20513;-64
2022/01/23 13:59:59;;;;;;;4.40;2.55;;;;;;;-2.14;47.76;96765.34;5097164;28;20039;-63
2022/01/23 14:02:27;;;;;;;6.15;3.15;;;;;;;-2.08;47.30;96760.34;5096932;28;20052;-62
2022/01/23 14:05:02;;;;;;;5.88;3.13;;;;;;;-2.06;47.29;96762.91;5097022;28;20024;-62
2022/01/23 14:07:30;;;;;;;5.75;3.38;;;;;;;-1.96;48.05;96756.25;5096839;28;20115;-63
2022/01/23 14:10:17;;;;;;;5.40;3.45;;;;;;;-1.96;47.89;96763.94;5096851;28;20027;-63
2022/01/23 14:12:45;;;;;;;4.88;3.00;;;;;;;-2.02;47.77;96772.38;5096699;28;20036;-64
2022/01/23 14:15:21;;;;;;;6.63;3.08;;;;;;;-2.01;47.46;96771.56;5096532;28;20031;-63
2022/01/23 14:18:09;;;;;;;5.18;3.20;;;;;;;-2.03;47.96;96771.53;5096649;28;20032;-63
2022/01/23 14:20:55;;;;;;;5.70;2.90;;;;;;;-2.12;47.88;96767.94;5096319;28;20074;-63
2022/01/23 14:23:22;;;;;;;5.10;3.13;;;;;;;-2.33;48.15;96767.63;5096531;28;20036;-64
2022/01/23 14:26:13;;;;;;;5.15;2.83;;;;;;;-2.42;48.73;96770.91;5096250;28;20035;-63
2022/01/23 14:28:50;;;;;;;5.82;3.00;;;;;;;-2.34;49.47;96773.63;5096144;28;20062;-61
2022/01/23 14:31:23;;;;;;;7.22;3.17;;;;;;;-2.30;48.91;96770.25;5096416;28;20043;-64
2022/01/23 14:33:55;;;;;;;6.05;3.03;;;;;;;-2.34;49.21;96777.88;5096203;28;20385;-61
2022/01/23 14:36:31;;;;;;;2.90;2.42;;;;;;;-2.37;49.86;96770.13;5095065;28;20035;-62
2022/01/23 14:39:00;;;;;;;6.13;4.15;;;;;;;-2.33;49.94;96767.63;5096111;28;20051;-61
2022/01/23 14:41:33;;;;;;;5.75;4.18;;;;;;;-2.45;50.00;96778.53;5096187;28;20025;-60
2022/01/23 14:44:00;;;;;;;3.50;2.90;;;;;;;-2.44;50.24;96777.69;5096258;28;20024;-61
2022/01/23 14:46:27;;;;;;;7.88;5.07;;;;;;;-2.54;51.02;96784.38;5096097;28;20024;-62
2022/01/23 14:49:00;;;;;;;7.20;4.03;;;;;;;-2.52;51.27;96780.97;5096036;28;20416;-62
2022/01/23 14:51:34;;;;;;;5.30;3.53;;;;;;;-2.54;50.95;96793.75;5094795;28;20039;-62
2022/01/23 14:54:02;;;;;;;11.32;4.30;;;;;;;-2.58;51.09;96797.97;5096388;28;20024;-62
2022/01/23 14:56:29;;;;;;;6.47;4.50;;;;;;;-2.57;51.84;96788.56;5095446;28;20525;-61
2022/01/23 14:58:55;;;;;;;5.85;4.00;;;;;;;-2.59;51.92;96792.81;5095734;28;20381;-62
2022/01/23 15:01:21;;;;;;;8.00;4.43;;;;;;;-2.63;52.49;96794.44;5095579;28;20020;-62
2022/01/23 15:03:52;;;;;;;7.05;3.55;;;;;;;-2.66;52.80;96791.81;5095706;28;20031;-61
2022/01/23 15:06:19;;;;;;;5.70;3.60;;;;;;;-2.73;53.21;96801.13;5095595;28;20064;-61
2022/01/23 15:08:47;;;;;;;5.95;3.63;;;;;;;-2.79;53.59;96811.25;5095694;28;20025;-61
2022/01/23 15:11:13;;;;;;;6.72;3.55;;;;;;;-2.85;54.44;96812.00;5095516;28;20036;-62
2022/01/23 15:13:40;;;;;;;3.72;2.92;;;;;;;-2.90;54.67;96817.81;5095400;28;20482;-62
2022/01/23 15:16:06;;;;;;;5.00;3.63;;;;;;;-2.87;55.16;96815.31;5095297;28;20032;-61
2022/01/23 15:18:38;;;;;;;6.32;4.32;;;;;;;-2.92;55.38;96816.13;5095181;28;20043;-61
2022/01/23 15:21:09;;;;;;;6.07;3.72;;;;;;;-2.98;55.53;96822.81;5095439;28;20038;-61
2022/01/23 15:23:36;;;;;;;5.25;3.67;;;;;;;-2.89;55.52;96820.41;5095331;28;20039;-61